sensor_id;sensor_type;location;lat;lon;timestamp;P1;durP1;ratioP1;P2;durP2;ratioP2
35506;SDS011;36461;52.018;21.036;2024-02-26T00:02:29;30.50;;;18.30;;
35506;SDS011;36461;52.018;21.036;2024-02-26T00:04:57;31.80;;;17.90;;
35506;SDS011;36461;52.018;21.036;2024-02-26T00:07:25;34.20;;;18.60;;
35506;SDS011;36461;52.018;21.036;2024-02-26T00:09:53;35.90;;;19.70;;
35506;SDS011;36461;52.018;21.036;2024-02-26T00:12:22;38.00;;;21.60;;
35506;SDS011;36461;52.018;21.036;2024-02-26T00:14:50;43.00;;;23.10;;
35506;SDS011;36461;52.018;21.036;2024-02-26T00:17:20;45.10;;;25.40;;
35506;SDS011;36461;52.018;21.036;2024-02-26T00:19:49;41.30;;;24.70;;
35506;SDS011;36461;52.018;21.036;2024-02-26T00:22:18;48.20;;;26.60;;
35506;SDS011;36461;52.018;21.036;2024-02-26T00:24:46;47.10;;;27.80;;
35506;SDS011;36461;52.018;21.036;2024-02-26T00:27:16;46.30;;;26.30;;
35506;SDS011;36461;52.018;21.036;2024-02-26T00:29:44;42.00;;;25.10;;
35506;SDS011;36461;52.018;21.036;2024-02-26T00:32:12;40.70;;;24.10;;
35506;SDS011;36461;52.018;21.036;2024-02-26T00:34:41;40.60;;;24.30;;
35506;SDS011;36461;52.018;21.036;2024-02-26T00:37:09;44.00;;;25.70;;
35506;SDS011;36461;52.018;21.036;2024-02-26T00:39:38;35.90;;;23.10;;
35506;SDS011;36461;52.018;21.036;2024-02-26T00:42:07;40.50;;;24.10;;
35506;SDS011;36461;52.018;21.036;2024-02-26T00:44:35;37.50;;;23.50;;
35506;SDS011;36461;52.018;21.036;2024-02-26T00:47:04;35.20;;;22.10;;
35506;SDS011;36461;52.018;21.036;2024-02-26T00:49:32;34.10;;;21.40;;
35506;SDS011;36461;52.018;21.036;2024-02-26T00:52:00;31.30;;;20.30;;
35506;SDS011;36461;52.018;21.036;2024-02-26T00:54:32;27.50;;;18.40;;
35506;SDS011;36461;52.018;21.036;2024-02-26T00:57:03;32.00;;;19.90;;
35506;SDS011;36461;52.018;21.036;2024-02-26T00:59:34;28.10;;;17.40;;
35506;SDS011;36461;52.018;21.036;2024-02-26T01:02:05;28.60;;;18.90;;
35506;SDS011;36461;52.018;21.036;2024-02-26T01:04:36;26.70;;;18.00;;
35506;SDS011;36461;52.018;21.036;2024-02-26T01:07:08;26.90;;;18.40;;
35506;SDS011;36461;52.018;21.036;2024-02-26T01:09:40;27.30;;;17.90;;
35506;SDS011;36461;52.018;21.036;2024-02-26T01:16:56;27.70;;;17.70;;
35506;SDS011;36461;52.018;21.036;2024-02-26T01:19:27;27.50;;;17.40;;
35506;SDS011;36461;52.018;21.036;2024-02-26T01:21:59;27.80;;;17.70;;
35506;SDS011;36461;52.018;21.036;2024-02-26T01:24:31;25.30;;;17.10;;
35506;SDS011;36461;52.018;21.036;2024-02-26T01:27:02;27.70;;;16.90;;
35506;SDS011;36461;52.018;21.036;2024-02-26T01:29:37;28.70;;;17.90;;
35506;SDS011;36461;52.018;21.036;2024-02-26T01:32:08;29.00;;;18.80;;
35506;SDS011;36461;52.018;21.036;2024-02-26T01:34:41;25.40;;;17.90;;
35506;SDS011;36461;52.018;21.036;2024-02-26T01:37:12;25.10;;;17.80;;
35506;SDS011;36461;52.018;21.036;2024-02-26T01:39:42;26.40;;;18.10;;
35506;SDS011;36461;52.018;21.036;2024-02-26T01:42:13;28.30;;;18.40;;
35506;SDS011;36461;52.018;21.036;2024-02-26T01:44:44;25.20;;;17.90;;
35506;SDS011;36461;52.018;21.036;2024-02-26T01:47:14;25.20;;;19.30;;
35506;SDS011;36461;52.018;21.036;2024-02-26T01:57:19;23.20;;;16.90;;
35506;SDS011;36461;52.018;21.036;2024-02-26T01:59:48;25.80;;;16.60;;
35506;SDS011;36461;52.018;21.036;2024-02-26T02:02:16;24.10;;;16.40;;
35506;SDS011;36461;52.018;21.036;2024-02-26T02:04:44;27.60;;;18.60;;
35506;SDS011;36461;52.018;21.036;2024-02-26T02:07:12;27.00;;;17.70;;
35506;SDS011;36461;52.018;21.036;2024-02-26T02:09:41;27.40;;;17.90;;
35506;SDS011;36461;52.018;21.036;2024-02-26T02:12:09;28.50;;;16.80;;
35506;SDS011;36461;52.018;21.036;2024-02-26T02:14:37;23.90;;;17.00;;
35506;SDS011;36461;52.018;21.036;2024-02-26T02:17:05;25.90;;;15.30;;
35506;SDS011;36461;52.018;21.036;2024-02-26T02:19:33;26.10;;;15.30;;
35506;SDS011;36461;52.018;21.036;2024-02-26T02:22:01;23.30;;;15.30;;
35506;SDS011;36461;52.018;21.036;2024-02-26T02:24:29;22.60;;;15.20;;
35506;SDS011;36461;52.018;21.036;2024-02-26T02:26:57;23.00;;;16.00;;
35506;SDS011;36461;52.018;21.036;2024-02-26T02:29:25;23.70;;;16.50;;
35506;SDS011;36461;52.018;21.036;2024-02-26T02:31:55;23.90;;;16.00;;
35506;SDS011;36461;52.018;21.036;2024-02-26T02:34:24;22.40;;;15.00;;
35506;SDS011;36461;52.018;21.036;2024-02-26T02:36:53;22.40;;;14.80;;
35506;SDS011;36461;52.018;21.036;2024-02-26T02:39:22;22.60;;;14.10;;
35506;SDS011;36461;52.018;21.036;2024-02-26T02:41:50;22.20;;;14.50;;
35506;SDS011;36461;52.018;21.036;2024-02-26T02:44:18;25.30;;;15.00;;
35506;SDS011;36461;52.018;21.036;2024-02-26T02:46:46;22.20;;;15.30;;
35506;SDS011;36461;52.018;21.036;2024-02-26T02:49:14;22.60;;;15.50;;
35506;SDS011;36461;52.018;21.036;2024-02-26T02:51:42;22.60;;;15.80;;
35506;SDS011;36461;52.018;21.036;2024-02-26T02:54:10;24.00;;;15.80;;
35506;SDS011;36461;52.018;21.036;2024-02-26T02:56:38;22.60;;;13.90;;
35506;SDS011;36461;52.018;21.036;2024-02-26T02:59:07;23.50;;;15.60;;
35506;SDS011;36461;52.018;21.036;2024-02-26T03:01:35;22.90;;;15.20;;
35506;SDS011;36461;52.018;21.036;2024-02-26T03:04:03;25.80;;;16.00;;
35506;SDS011;36461;52.018;21.036;2024-02-26T03:06:31;26.10;;;15.60;;
35506;SDS011;36461;52.018;21.036;2024-02-26T03:08:59;26.00;;;16.30;;
35506;SDS011;36461;52.018;21.036;2024-02-26T03:11:28;24.60;;;15.10;;
35506;SDS011;36461;52.018;21.036;2024-02-26T03:13:56;23.10;;;16.10;;
35506;SDS011;36461;52.018;21.036;2024-02-26T03:16:25;22.70;;;15.60;;
35506;SDS011;36461;52.018;21.036;2024-02-26T03:18:53;24.50;;;15.90;;
35506;SDS011;36461;52.018;21.036;2024-02-26T03:21:21;23.70;;;15.00;;
35506;SDS011;36461;52.018;21.036;2024-02-26T03:23:49;23.30;;;14.80;;
35506;SDS011;36461;52.018;21.036;2024-02-26T03:26:17;22.70;;;14.50;;
35506;SDS011;36461;52.018;21.036;2024-02-26T03:28:45;25.90;;;15.90;;
35506;SDS011;36461;52.018;21.036;2024-02-26T03:31:13;24.90;;;15.50;;
35506;SDS011;36461;52.018;21.036;2024-02-26T03:33:41;25.90;;;14.90;;
35506;SDS011;36461;52.018;21.036;2024-02-26T03:36:09;21.80;;;15.10;;
35506;SDS011;36461;52.018;21.036;2024-02-26T03:38:37;20.80;;;15.00;;
35506;SDS011;36461;52.018;21.036;2024-02-26T03:41:05;23.50;;;15.40;;
35506;SDS011;36461;52.018;21.036;2024-02-26T03:43:33;24.30;;;15.50;;
35506;SDS011;36461;52.018;21.036;2024-02-26T03:46:02;22.20;;;15.00;;
35506;SDS011;36461;52.018;21.036;2024-02-26T03:48:30;22.60;;;14.70;;
35506;SDS011;36461;52.018;21.036;2024-02-26T03:50:58;26.10;;;15.40;;
35506;SDS011;36461;52.018;21.036;2024-02-26T03:53:26;24.50;;;16.10;;
35506;SDS011;36461;52.018;21.036;2024-02-26T03:55:54;25.40;;;15.20;;
35506;SDS011;36461;52.018;21.036;2024-02-26T03:58:22;25.20;;;15.00;;
35506;SDS011;36461;52.018;21.036;2024-02-26T04:00:50;24.00;;;15.00;;
35506;SDS011;36461;52.018;21.036;2024-02-26T04:03:19;25.20;;;16.10;;
35506;SDS011;36461;52.018;21.036;2024-02-26T04:05:47;24.10;;;14.70;;
35506;SDS011;36461;52.018;21.036;2024-02-26T04:08:15;19.80;;;14.40;;
35506;SDS011;36461;52.018;21.036;2024-02-26T04:10:43;22.50;;;13.80;;
35506;SDS011;36461;52.018;21.036;2024-02-26T04:13:11;25.20;;;15.10;;
35506;SDS011;36461;52.018;21.036;2024-02-26T04:15:39;22.20;;;14.60;;
35506;SDS011;36461;52.018;21.036;2024-02-26T04:18:07;21.70;;;14.00;;
35506;SDS011;36461;52.018;21.036;2024-02-26T04:20:35;24.80;;;14.60;;
35506;SDS011;36461;52.018;21.036;2024-02-26T04:23:03;24.30;;;14.30;;
35506;SDS011;36461;52.018;21.036;2024-02-26T04:25:32;24.80;;;14.20;;
35506;SDS011;36461;52.018;21.036;2024-02-26T04:28:00;22.60;;;15.00;;
35506;SDS011;36461;52.018;21.036;2024-02-26T04:30:28;22.90;;;14.80;;
35506;SDS011;36461;52.018;21.036;2024-02-26T04:32:56;22.00;;;14.20;;
35506;SDS011;36461;52.018;21.036;2024-02-26T04:35:24;22.60;;;13.90;;
35506;SDS011;36461;52.018;21.036;2024-02-26T04:37:52;26.30;;;15.30;;
35506;SDS011;36461;52.018;21.036;2024-02-26T04:40:20;24.50;;;14.50;;
35506;SDS011;36461;52.018;21.036;2024-02-26T04:42:47;24.90;;;15.70;;
35506;SDS011;36461;52.018;21.036;2024-02-26T04:45:15;24.30;;;15.40;;
35506;SDS011;36461;52.018;21.036;2024-02-26T04:47:43;21.00;;;14.60;;
35506;SDS011;36461;52.018;21.036;2024-02-26T04:50:12;21.40;;;14.90;;
35506;SDS011;36461;52.018;21.036;2024-02-26T04:52:40;23.20;;;14.90;;
35506;SDS011;36461;52.018;21.036;2024-02-26T04:55:09;22.80;;;15.00;;
35506;SDS011;36461;52.018;21.036;2024-02-26T04:57:37;28.20;;;15.30;;
35506;SDS011;36461;52.018;21.036;2024-02-26T05:00:06;26.40;;;15.70;;
35506;SDS011;36461;52.018;21.036;2024-02-26T05:02:34;22.90;;;14.00;;
35506;SDS011;36461;52.018;21.036;2024-02-26T05:05:06;25.70;;;16.00;;
35506;SDS011;36461;52.018;21.036;2024-02-26T05:07:39;22.20;;;14.50;;
35506;SDS011;36461;52.018;21.036;2024-02-26T05:10:09;21.40;;;15.00;;
35506;SDS011;36461;52.018;21.036;2024-02-26T05:12:37;26.00;;;17.30;;
35506;SDS011;36461;52.018;21.036;2024-02-26T05:15:06;25.20;;;16.70;;
35506;SDS011;36461;52.018;21.036;2024-02-26T05:17:35;31.50;;;19.30;;
35506;SDS011;36461;52.018;21.036;2024-02-26T05:20:03;32.00;;;19.80;;
35506;SDS011;36461;52.018;21.036;2024-02-26T05:22:32;30.90;;;19.80;;
35506;SDS011;36461;52.018;21.036;2024-02-26T05:25:00;28.40;;;19.30;;
35506;SDS011;36461;52.018;21.036;2024-02-26T05:27:28;32.30;;;19.90;;
35506;SDS011;36461;52.018;21.036;2024-02-26T05:29:56;32.20;;;20.00;;
35506;SDS011;36461;52.018;21.036;2024-02-26T05:32:24;27.90;;;18.10;;
35506;SDS011;36461;52.018;21.036;2024-02-26T05:34:52;28.30;;;18.50;;
35506;SDS011;36461;52.018;21.036;2024-02-26T05:37:21;31.30;;;19.00;;
35506;SDS011;36461;52.018;21.036;2024-02-26T05:39:49;28.80;;;18.20;;
35506;SDS011;36461;52.018;21.036;2024-02-26T05:42:17;26.20;;;18.40;;
35506;SDS011;36461;52.018;21.036;2024-02-26T05:44:45;27.90;;;17.70;;
35506;SDS011;36461;52.018;21.036;2024-02-26T05:47:13;28.20;;;19.00;;
35506;SDS011;36461;52.018;21.036;2024-02-26T05:49:41;28.20;;;19.30;;
35506;SDS011;36461;52.018;21.036;2024-02-26T05:52:09;25.10;;;18.60;;
35506;SDS011;36461;52.018;21.036;2024-02-26T05:54:37;27.50;;;18.70;;
35506;SDS011;36461;52.018;21.036;2024-02-26T05:57:05;26.60;;;18.60;;
35506;SDS011;36461;52.018;21.036;2024-02-26T05:59:33;26.80;;;18.40;;
35506;SDS011;36461;52.018;21.036;2024-02-26T06:02:01;28.50;;;19.70;;
35506;SDS011;36461;52.018;21.036;2024-02-26T06:04:29;29.10;;;19.70;;
35506;SDS011;36461;52.018;21.036;2024-02-26T06:06:57;28.70;;;18.70;;
35506;SDS011;36461;52.018;21.036;2024-02-26T06:09:25;27.30;;;18.40;;
35506;SDS011;36461;52.018;21.036;2024-02-26T06:11:53;28.60;;;19.70;;
35506;SDS011;36461;52.018;21.036;2024-02-26T06:14:22;31.20;;;20.00;;
35506;SDS011;36461;52.018;21.036;2024-02-26T06:16:51;29.40;;;20.50;;
35506;SDS011;36461;52.018;21.036;2024-02-26T06:19:19;28.10;;;19.50;;
35506;SDS011;36461;52.018;21.036;2024-02-26T06:21:47;28.20;;;19.80;;
35506;SDS011;36461;52.018;21.036;2024-02-26T06:24:15;31.50;;;20.70;;
35506;SDS011;36461;52.018;21.036;2024-02-26T06:28:52;35.20;;;21.40;;
35506;SDS011;36461;52.018;21.036;2024-02-26T06:31:18;35.00;;;21.60;;
35506;SDS011;36461;52.018;21.036;2024-02-26T06:33:45;30.60;;;21.10;;
35506;SDS011;36461;52.018;21.036;2024-02-26T06:36:12;33.30;;;21.70;;
35506;SDS011;36461;52.018;21.036;2024-02-26T06:38:39;31.70;;;22.10;;
35506;SDS011;36461;52.018;21.036;2024-02-26T06:41:05;32.20;;;19.90;;
35506;SDS011;36461;52.018;21.036;2024-02-26T06:43:32;30.10;;;20.90;;
35506;SDS011;36461;52.018;21.036;2024-02-26T06:48:26;28.80;;;19.90;;
35506;SDS011;36461;52.018;21.036;2024-02-26T06:50:52;30.10;;;20.70;;
35506;SDS011;36461;52.018;21.036;2024-02-26T06:53:19;35.50;;;23.10;;
35506;SDS011;36461;52.018;21.036;2024-02-26T06:55:46;33.50;;;22.60;;
35506;SDS011;36461;52.018;21.036;2024-02-26T06:58:13;38.80;;;23.80;;
35506;SDS011;36461;52.018;21.036;2024-02-26T07:00:40;36.30;;;22.30;;
35506;SDS011;36461;52.018;21.036;2024-02-26T07:03:07;35.50;;;21.90;;
35506;SDS011;36461;52.018;21.036;2024-02-26T07:05:35;37.20;;;23.70;;
35506;SDS011;36461;52.018;21.036;2024-02-26T07:08:02;33.70;;;24.10;;
35506;SDS011;36461;52.018;21.036;2024-02-26T07:12:56;35.00;;;23.50;;
35506;SDS011;36461;52.018;21.036;2024-02-26T07:15:22;34.30;;;24.80;;
35506;SDS011;36461;52.018;21.036;2024-02-26T07:17:50;35.00;;;24.40;;
35506;SDS011;36461;52.018;21.036;2024-02-26T07:20:17;40.20;;;25.10;;
35506;SDS011;36461;52.018;21.036;2024-02-26T07:22:45;36.30;;;25.00;;
35506;SDS011;36461;52.018;21.036;2024-02-26T07:27:40;32.20;;;22.60;;
35506;SDS011;36461;52.018;21.036;2024-02-26T07:30:07;35.00;;;23.20;;
35506;SDS011;36461;52.018;21.036;2024-02-26T07:32:37;32.20;;;22.10;;
35506;SDS011;36461;52.018;21.036;2024-02-26T07:35:04;32.30;;;22.00;;
35506;SDS011;36461;52.018;21.036;2024-02-26T07:37:33;30.70;;;21.00;;
35506;SDS011;36461;52.018;21.036;2024-02-26T07:40:00;33.60;;;21.90;;
35506;SDS011;36461;52.018;21.036;2024-02-26T07:42:28;29.30;;;19.30;;
35506;SDS011;36461;52.018;21.036;2024-02-26T07:44:55;37.90;;;20.20;;
35506;SDS011;36461;52.018;21.036;2024-02-26T07:47:22;28.30;;;19.70;;
35506;SDS011;36461;52.018;21.036;2024-02-26T07:49:49;30.40;;;21.20;;
35506;SDS011;36461;52.018;21.036;2024-02-26T07:52:17;27.30;;;17.70;;
35506;SDS011;36461;52.018;21.036;2024-02-26T07:54:44;29.00;;;18.40;;
35506;SDS011;36461;52.018;21.036;2024-02-26T07:57:11;24.70;;;16.90;;
35506;SDS011;36461;52.018;21.036;2024-02-26T07:59:42;22.30;;;16.40;;
35506;SDS011;36461;52.018;21.036;2024-02-26T08:02:09;23.20;;;16.90;;
35506;SDS011;36461;52.018;21.036;2024-02-26T08:07:03;22.00;;;15.80;;
35506;SDS011;36461;52.018;21.036;2024-02-26T08:09:31;20.70;;;15.40;;
35506;SDS011;36461;52.018;21.036;2024-02-26T08:11:58;19.60;;;14.50;;
35506;SDS011;36461;52.018;21.036;2024-02-26T08:14:25;21.50;;;15.20;;
35506;SDS011;36461;52.018;21.036;2024-02-26T08:16:52;20.00;;;14.70;;
35506;SDS011;36461;52.018;21.036;2024-02-26T08:19:19;20.00;;;14.00;;
35506;SDS011;36461;52.018;21.036;2024-02-26T08:21:46;18.70;;;13.90;;
35506;SDS011;36461;52.018;21.036;2024-02-26T08:26:40;18.40;;;14.40;;
35506;SDS011;36461;52.018;21.036;2024-02-26T08:29:07;18.20;;;14.50;;
35506;SDS011;36461;52.018;21.036;2024-02-26T08:31:34;17.40;;;13.80;;
35506;SDS011;36461;52.018;21.036;2024-02-26T08:34:04;18.40;;;15.00;;
35506;SDS011;36461;52.018;21.036;2024-02-26T08:36:33;16.50;;;13.50;;
35506;SDS011;36461;52.018;21.036;2024-02-26T08:39:02;17.20;;;13.20;;
35506;SDS011;36461;52.018;21.036;2024-02-26T08:41:30;16.20;;;12.40;;
35506;SDS011;36461;52.018;21.036;2024-02-26T08:43:58;18.40;;;12.80;;
35506;SDS011;36461;52.018;21.036;2024-02-26T08:48:52;17.40;;;12.90;;
35506;SDS011;36461;52.018;21.036;2024-02-26T08:51:20;15.60;;;12.60;;
35506;SDS011;36461;52.018;21.036;2024-02-26T08:53:47;13.60;;;11.70;;
35506;SDS011;36461;52.018;21.036;2024-02-26T08:56:14;15.40;;;11.20;;
35506;SDS011;36461;52.018;21.036;2024-02-26T08:58:44;13.30;;;11.00;;
35506;SDS011;36461;52.018;21.036;2024-02-26T09:01:10;13.80;;;11.00;;
35506;SDS011;36461;52.018;21.036;2024-02-26T09:03:37;14.40;;;11.30;;
35506;SDS011;36461;52.018;21.036;2024-02-26T09:06:04;13.70;;;11.30;;
35506;SDS011;36461;52.018;21.036;2024-02-26T09:08:33;15.20;;;11.60;;
35506;SDS011;36461;52.018;21.036;2024-02-26T09:10:59;11.20;;;10.00;;
35506;SDS011;36461;52.018;21.036;2024-02-26T09:13:26;13.30;;;10.60;;
35506;SDS011;36461;52.018;21.036;2024-02-26T09:15:53;12.10;;;10.60;;
35506;SDS011;36461;52.018;21.036;2024-02-26T09:18:21;11.50;;;10.30;;
35506;SDS011;36461;52.018;21.036;2024-02-26T09:20:47;13.10;;;10.30;;
35506;SDS011;36461;52.018;21.036;2024-02-26T09:23:14;11.10;;;9.60;;
35506;SDS011;36461;52.018;21.036;2024-02-26T09:25:41;11.30;;;9.80;;
35506;SDS011;36461;52.018;21.036;2024-02-26T09:28:07;12.10;;;9.70;;
35506;SDS011;36461;52.018;21.036;2024-02-26T09:30:34;12.50;;;10.00;;
35506;SDS011;36461;52.018;21.036;2024-02-26T09:35:28;12.10;;;10.80;;
35506;SDS011;36461;52.018;21.036;2024-02-26T09:37:55;10.90;;;9.60;;
35506;SDS011;36461;52.018;21.036;2024-02-26T09:40:22;11.60;;;10.40;;
35506;SDS011;36461;52.018;21.036;2024-02-26T09:42:49;13.40;;;11.10;;
35506;SDS011;36461;52.018;21.036;2024-02-26T09:45:25;11.90;;;10.70;;
35506;SDS011;36461;52.018;21.036;2024-02-26T09:47:55;11.40;;;9.80;;
35506;SDS011;36461;52.018;21.036;2024-02-26T09:50:23;10.70;;;9.60;;
35506;SDS011;36461;52.018;21.036;2024-02-26T09:52:51;11.30;;;9.90;;
35506;SDS011;36461;52.018;21.036;2024-02-26T09:55:19;11.40;;;10.10;;
35506;SDS011;36461;52.018;21.036;2024-02-26T09:57:46;11.30;;;10.10;;
35506;SDS011;36461;52.018;21.036;2024-02-26T10:00:19;11.50;;;10.30;;
35506;SDS011;36461;52.018;21.036;2024-02-26T10:02:48;11.40;;;9.80;;
35506;SDS011;36461;52.018;21.036;2024-02-26T10:05:18;10.20;;;9.10;;
35506;SDS011;36461;52.018;21.036;2024-02-26T10:07:45;10.20;;;9.10;;
35506;SDS011;36461;52.018;21.036;2024-02-26T10:10:13;10.60;;;8.70;;
35506;SDS011;36461;52.018;21.036;2024-02-26T10:12:41;10.70;;;9.30;;
35506;SDS011;36461;52.018;21.036;2024-02-26T10:15:08;9.60;;;8.60;;
35506;SDS011;36461;52.018;21.036;2024-02-26T10:17:35;10.40;;;9.20;;
35506;SDS011;36461;52.018;21.036;2024-02-26T10:20:14;10.90;;;9.80;;
35506;SDS011;36461;52.018;21.036;2024-02-26T10:22:46;10.10;;;8.80;;
35506;SDS011;36461;52.018;21.036;2024-02-26T10:25:13;9.50;;;8.30;;
35506;SDS011;36461;52.018;21.036;2024-02-26T10:27:40;9.30;;;8.30;;
35506;SDS011;36461;52.018;21.036;2024-02-26T10:30:19;10.20;;;9.00;;
35506;SDS011;36461;52.018;21.036;2024-02-26T10:32:47;9.80;;;8.70;;
35506;SDS011;36461;52.018;21.036;2024-02-26T10:35:16;10.10;;;8.60;;
35506;SDS011;36461;52.018;21.036;2024-02-26T10:37:44;8.70;;;7.80;;
35506;SDS011;36461;52.018;21.036;2024-02-26T10:40:11;9.00;;;8.10;;
35506;SDS011;36461;52.018;21.036;2024-02-26T10:42:39;9.60;;;7.50;;
35506;SDS011;36461;52.018;21.036;2024-02-26T10:45:08;8.30;;;7.10;;
35506;SDS011;36461;52.018;21.036;2024-02-26T10:47:36;7.60;;;6.50;;
35506;SDS011;36461;52.018;21.036;2024-02-26T10:50:04;6.90;;;6.00;;
35506;SDS011;36461;52.018;21.036;2024-02-26T10:52:32;7.80;;;6.70;;
35506;SDS011;36461;52.018;21.036;2024-02-26T10:55:01;7.60;;;6.60;;
35506;SDS011;36461;52.018;21.036;2024-02-26T11:00:04;7.60;;;6.30;;
35506;SDS011;36461;52.018;21.036;2024-02-26T11:02:32;7.10;;;6.40;;
35506;SDS011;36461;52.018;21.036;2024-02-26T11:05:03;6.80;;;6.10;;
35506;SDS011;36461;52.018;21.036;2024-02-26T11:07:30;6.40;;;5.80;;
35506;SDS011;36461;52.018;21.036;2024-02-26T11:09:59;6.20;;;5.40;;
35506;SDS011;36461;52.018;21.036;2024-02-26T11:12:27;5.70;;;5.10;;
35506;SDS011;36461;52.018;21.036;2024-02-26T11:14:55;6.60;;;5.70;;
35506;SDS011;36461;52.018;21.036;2024-02-26T11:17:26;5.70;;;4.90;;
35506;SDS011;36461;52.018;21.036;2024-02-26T11:19:58;5.70;;;5.10;;
35506;SDS011;36461;52.018;21.036;2024-02-26T11:22:26;6.80;;;5.40;;
35506;SDS011;36461;52.018;21.036;2024-02-26T11:24:54;5.70;;;5.10;;
35506;SDS011;36461;52.018;21.036;2024-02-26T11:27:25;6.60;;;5.60;;
35506;SDS011;36461;52.018;21.036;2024-02-26T11:29:57;5.70;;;5.00;;
35506;SDS011;36461;52.018;21.036;2024-02-26T11:32:26;4.80;;;4.30;;
35506;SDS011;36461;52.018;21.036;2024-02-26T11:34:56;4.90;;;4.40;;
35506;SDS011;36461;52.018;21.036;2024-02-26T11:37:25;4.90;;;4.10;;
35506;SDS011;36461;52.018;21.036;2024-02-26T11:39:52;6.70;;;5.50;;
35506;SDS011;36461;52.018;21.036;2024-02-26T11:44:49;4.80;;;4.30;;
35506;SDS011;36461;52.018;21.036;2024-02-26T11:47:23;5.10;;;4.60;;
35506;SDS011;36461;52.018;21.036;2024-02-26T11:49:50;6.40;;;5.00;;
35506;SDS011;36461;52.018;21.036;2024-02-26T11:52:17;5.70;;;5.20;;
35506;SDS011;36461;52.018;21.036;2024-02-26T11:54:53;5.40;;;4.70;;
35506;SDS011;36461;52.018;21.036;2024-02-26T11:57:24;6.00;;;4.90;;
35506;SDS011;36461;52.018;21.036;2024-02-26T11:59:56;6.40;;;4.80;;
35506;SDS011;36461;52.018;21.036;2024-02-26T12:05:13;4.30;;;3.90;;
35506;SDS011;36461;52.018;21.036;2024-02-26T12:07:47;5.10;;;4.10;;
35506;SDS011;36461;52.018;21.036;2024-02-26T12:12:59;4.20;;;3.50;;
35506;SDS011;36461;52.018;21.036;2024-02-26T12:15:32;4.60;;;3.80;;
35506;SDS011;36461;52.018;21.036;2024-02-26T12:18:19;5.30;;;4.40;;
35506;SDS011;36461;52.018;21.036;2024-02-26T12:20:57;4.00;;;3.50;;
35506;SDS011;36461;52.018;21.036;2024-02-26T12:23:28;5.60;;;3.80;;
35506;SDS011;36461;52.018;21.036;2024-02-26T12:25:58;4.40;;;3.70;;
35506;SDS011;36461;52.018;21.036;2024-02-26T12:28:29;4.10;;;3.70;;
35506;SDS011;36461;52.018;21.036;2024-02-26T12:30:56;4.50;;;3.60;;
35506;SDS011;36461;52.018;21.036;2024-02-26T12:33:26;4.10;;;3.60;;
35506;SDS011;36461;52.018;21.036;2024-02-26T12:35:54;4.40;;;3.20;;
35506;SDS011;36461;52.018;21.036;2024-02-26T12:38:21;4.90;;;3.40;;
35506;SDS011;36461;52.018;21.036;2024-02-26T12:40:48;3.50;;;3.20;;
35506;SDS011;36461;52.018;21.036;2024-02-26T12:43:15;4.80;;;3.00;;
35506;SDS011;36461;52.018;21.036;2024-02-26T12:45:42;3.40;;;3.00;;
35506;SDS011;36461;52.018;21.036;2024-02-26T12:48:13;3.60;;;3.00;;
35506;SDS011;36461;52.018;21.036;2024-02-26T12:50:44;3.90;;;3.00;;
35506;SDS011;36461;52.018;21.036;2024-02-26T12:53:13;3.60;;;3.20;;
35506;SDS011;36461;52.018;21.036;2024-02-26T12:55:39;3.40;;;3.10;;
35506;SDS011;36461;52.018;21.036;2024-02-26T12:58:07;3.90;;;3.20;;
35506;SDS011;36461;52.018;21.036;2024-02-26T13:00:35;4.30;;;3.00;;
35506;SDS011;36461;52.018;21.036;2024-02-26T13:03:03;3.80;;;3.20;;
35506;SDS011;36461;52.018;21.036;2024-02-26T13:05:31;3.40;;;2.80;;
35506;SDS011;36461;52.018;21.036;2024-02-26T13:07:59;4.80;;;3.10;;
35506;SDS011;36461;52.018;21.036;2024-02-26T13:10:26;4.40;;;3.20;;
35506;SDS011;36461;52.018;21.036;2024-02-26T13:15:20;4.70;;;2.90;;
35506;SDS011;36461;52.018;21.036;2024-02-26T13:17:48;3.40;;;3.00;;
35506;SDS011;36461;52.018;21.036;2024-02-26T13:20:28;3.40;;;3.10;;
35506;SDS011;36461;52.018;21.036;2024-02-26T13:23:04;3.10;;;2.70;;
35506;SDS011;36461;52.018;21.036;2024-02-26T13:25:32;2.80;;;2.60;;
35506;SDS011;36461;52.018;21.036;2024-02-26T13:28:08;3.50;;;3.00;;
35506;SDS011;36461;52.018;21.036;2024-02-26T13:30:36;4.20;;;3.30;;
35506;SDS011;36461;52.018;21.036;2024-02-26T13:33:10;3.60;;;3.10;;
35506;SDS011;36461;52.018;21.036;2024-02-26T13:35:39;3.50;;;3.10;;
35506;SDS011;36461;52.018;21.036;2024-02-26T13:38:06;3.70;;;3.20;;
35506;SDS011;36461;52.018;21.036;2024-02-26T13:40:33;3.60;;;3.20;;
35506;SDS011;36461;52.018;21.036;2024-02-26T13:43:00;14.80;;;11.10;;
35506;SDS011;36461;52.018;21.036;2024-02-26T13:45:27;7.80;;;6.20;;
35506;SDS011;36461;52.018;21.036;2024-02-26T13:48:07;4.70;;;4.20;;
35506;SDS011;36461;52.018;21.036;2024-02-26T13:50:39;4.60;;;4.10;;
35506;SDS011;36461;52.018;21.036;2024-02-26T13:53:06;4.10;;;3.40;;
35506;SDS011;36461;52.018;21.036;2024-02-26T13:55:33;3.80;;;3.30;;
35506;SDS011;36461;52.018;21.036;2024-02-26T13:57:59;5.00;;;3.20;;
35506;SDS011;36461;52.018;21.036;2024-02-26T14:00:30;5.70;;;3.20;;
35506;SDS011;36461;52.018;21.036;2024-02-26T14:03:01;3.60;;;3.10;;
35506;SDS011;36461;52.018;21.036;2024-02-26T14:05:29;5.80;;;4.70;;
35506;SDS011;36461;52.018;21.036;2024-02-26T14:10:23;7.10;;;3.50;;
35506;SDS011;36461;52.018;21.036;2024-02-26T14:12:49;5.90;;;4.20;;
35506;SDS011;36461;52.018;21.036;2024-02-26T14:15:16;6.80;;;4.30;;
35506;SDS011;36461;52.018;21.036;2024-02-26T14:17:43;8.60;;;6.30;;
35506;SDS011;36461;52.018;21.036;2024-02-26T14:20:09;8.20;;;6.20;;
35506;SDS011;36461;52.018;21.036;2024-02-26T14:22:37;9.90;;;6.80;;
35506;SDS011;36461;52.018;21.036;2024-02-26T14:25:04;11.20;;;8.00;;
35506;SDS011;36461;52.018;21.036;2024-02-26T14:27:30;8.10;;;5.40;;
35506;SDS011;36461;52.018;21.036;2024-02-26T14:29:57;9.80;;;6.00;;
35506;SDS011;36461;52.018;21.036;2024-02-26T14:32:24;5.20;;;3.60;;
35506;SDS011;36461;52.018;21.036;2024-02-26T14:34:50;12.00;;;5.90;;
35506;SDS011;36461;52.018;21.036;2024-02-26T14:42:10;6.40;;;4.50;;
35506;SDS011;36461;52.018;21.036;2024-02-26T14:44:37;9.00;;;5.00;;
35506;SDS011;36461;52.018;21.036;2024-02-26T14:47:04;10.20;;;6.00;;
35506;SDS011;36461;52.018;21.036;2024-02-26T14:49:30;5.30;;;4.00;;
35506;SDS011;36461;52.018;21.036;2024-02-26T14:51:58;6.60;;;4.80;;
35506;SDS011;36461;52.018;21.036;2024-02-26T14:54:24;7.90;;;4.90;;
35506;SDS011;36461;52.018;21.036;2024-02-26T14:59:18;6.50;;;4.80;;
35506;SDS011;36461;52.018;21.036;2024-02-26T15:04:14;11.00;;;6.40;;
35506;SDS011;36461;52.018;21.036;2024-02-26T15:06:41;7.80;;;4.70;;
35506;SDS011;36461;52.018;21.036;2024-02-26T15:11:37;7.00;;;4.10;;
35506;SDS011;36461;52.018;21.036;2024-02-26T15:14:06;9.20;;;5.10;;
35506;SDS011;36461;52.018;21.036;2024-02-26T15:16:35;9.90;;;5.60;;
35506;SDS011;36461;52.018;21.036;2024-02-26T15:19:01;9.10;;;4.80;;
35506;SDS011;36461;52.018;21.036;2024-02-26T15:21:29;9.50;;;5.40;;
35506;SDS011;36461;52.018;21.036;2024-02-26T15:23:56;21.40;;;15.70;;